BKBT2: Red River, Burkburnett

Data processed at Fri Jan 05 2018 23:43


All information presented herein is the property of the government of the United States of America and may be revised or deleted at any time without prior notice.
Dissemination of this information without the expressed written consent of the Public Affairs Office, Tulsa District U.S. Army Corps of Engineers is strictly prohibited.
These data are gathered electronically and, as presented, have not undergone any form of quality control. These data are not guaranteed to be valid or correct.
Go to home page.
Go to station list.

Upstream stations:

Downstream station:
Previous Day
Next Day
Current Day
    
SHEF ID:       BKBT2     Red Rv nr Burkburnett, TX
STATION TYPE:  

               PRECIP     STAGE  RIV-FLOW  BAT-LOAD
                   in        ft       cfs      volt
              Ccp-Rev   Ccp-Rev   Ccp-Rev   Ccp-Rev
(US/Central)
01/03 00:00      0.00      4.20       246     12.49
01/03 01:00      0.00      4.19       243     12.41
01/03 02:00      0.00      4.18       240     12.41
01/03 03:00      0.00      4.19       243     12.41
01/03 04:00      0.00      4.18       240     12.41
01/03 05:00      0.00      4.18       240     12.41
01/03 06:00      0.00      4.17       237     12.41
01/03 07:00      0.00      4.17       237     12.33
01/03 08:00      0.00      4.18       240     12.33
01/03 09:00      0.00      4.15       231     12.81
01/03 10:00      0.00      4.17       237     13.68
01/03 11:00      0.00      4.11       219     13.84
01/03 12:00      0.00      4.09       213     13.84
01/03 13:00      0.00    -22.31         0     13.68
01/03 14:00      0.00      4.14       228     13.68
01/03 15:00      0.00      4.15       231     13.44
01/03 16:00      0.00      4.13       225     13.37
01/03 17:00      0.00      4.18       240     13.21
01/03 18:00      0.00      4.25       262     12.81
01/03 19:00      0.00      4.31       282     12.65
01/03 20:00      0.00      4.31       282     12.57
01/03 21:00      0.00      4.29       276     12.57
01/03 22:00      0.00      4.28       272     12.57
01/03 23:00      0.00      4.29       276     12.49